Guerneville, CA

12:47 AM PDT on August 23, 2014 (GMT -0700)
Stumptown Brewery | Change Station
CLOSE
Current Station
Personal Weather Station
Location: Guerneville, CA
Elevation: 55 ft
Nearby Weather Stations

Elev 55 ft 38.51 °N, 122.98 °W | Updated 49 seconds ago

Overcast
Overcast
59.4 °F
Feels Like 59.4 °F
N
0.0
Wind Variable Wind from ESE
Gusts 5.0 mph

Today
High -- | Low -- °F
--% Chance of Precip.
Yesterday
High -- | Low -- °F
Precip. -- in
6:33 AM 7:54 PM
Waning Crescent, 5% visible
Pressure 29.88 in
Visibility 10.0 miles
Clouds Overcast 800 ft
Dew Point 56 °F
Humidity 90%
Rainfall 0.00 in
Snow Depth Not available.
UV 0.0 out of 12
Pollen 5.70 out of 12
Air Quality Not available.
Flu Activity Not available.
METAR KSTS 230653Z AUTO 13004KT 10SM OVC008 16/13 A2990 RMK AO2 SLP119 T01560133

More Conditions Fewer Conditions

Pressure 29.88 in
Visibility 10.0 miles
Clouds Overcast 800 ft
Dew Point 56 °F
Humidity 90%
Rainfall 0.00 in
Snow Depth Not available.
UV 0.0 out of 12
Pollen 5.70 out of 12
Air Quality Not available.
Flu Activity Not available.
METAR KSTS 230653Z AUTO 13004KT 10SM OVC008 16/13 A2990 RMK AO2 SLP119 T01560133

More Conditions Fewer Conditions

10-Day Weather Forecast

Almanac

Astronomy

Aug. 23, 2014 Rise Set
Actual Time 6:33 AM PDT 7:54 PM PDT
Civil Twilight 6:05 AM PDT 8:22 PM PDT
Nautical Twilight 5:32 AM PDT 8:55 PM PDT
Astronomical Twilight 4:57 AM PDT 9:30 PM PDT
Moon 4:55 AM PDT 6:42 PM PDT
Length of Visible Light 14h 16m
Length of Day
13h 21m
Tomorrow will be 2m 18s shorter.
Waning Crescent, 5% of the Moon is Illuminated
Today
Waning Crescent
Aug 25
New
Sep 2
First Quarter
Sep 8
Full
Sep 15
Last Quarter

Today's Extremes

State Highs State Lows

Community

WunderPhotos

Upload Photos

1,746,384 photos uploaded!

WunderBlogs® & News

By Dr. Jeff Masters
Director of Meteorology, Weather Underground
By Kari Strenfel
Meteorologist, Weather Underground
By Christopher C. Burt
Weather Historian, Weather Underground
August 23, 2014
August 23, 2014
August 22, 2014

Nearby

Air Quality

  Air Quality AQ Index Pollutant
Friday Good
PM2.5
Saturday Good
PM2.5
Sunday Moderate
PM2.5
Monday Moderate
PM2.5
Tuesday Moderate
PM2.5
Wednesday Moderate
PM2.5

Snow Depth

Station Depth Elevation
Squaw Valley 0 in 8200 ft
Echo Peak 1 in 7800 ft
Tahoe City Cross 0 in 6750 ft
Fallen Leaf 0 in 6300 ft
Forestdale Creek 0 in 8029 ft

Earthquake Activity

City Distance Mag. Time & Date
Berkeley, California 59 miles 2.6 7:41 PM PDT
2014-08-16
Minimum magnitude displayed is 2.5.

Coastal Water Temperatures

Place Temperature
Point Reyes, CA 64.0 °F
Arena Cove, CA 57.0 °F
San Francisco, CA 64.0 °F
Richmond, CA 66.9 °F

Nearby Weather Stations